createdAt,value
2018-09-05T00:02:11.858Z,11.83
2018-09-05T00:04:42.248Z,12.97
2018-09-05T00:07:20.014Z,13.00
2018-09-05T00:09:50.401Z,13.00
2018-09-05T00:12:20.800Z,13.47
2018-09-05T00:15:10.342Z,11.47
2018-09-05T00:17:40.780Z,13.83
2018-09-05T00:20:11.369Z,13.97
2018-09-05T00:22:41.796Z,13.63
2018-09-05T00:25:12.116Z,13.70
2018-09-05T00:27:42.512Z,14.50
2018-09-05T00:30:20.897Z,13.93
2018-09-05T00:32:51.294Z,12.00
2018-09-05T00:35:21.692Z,11.97
2018-09-05T00:37:52.177Z,14.07
2018-09-05T00:40:28.661Z,13.40
2018-09-05T00:42:59.090Z,13.63
2018-09-05T00:45:29.492Z,14.47
2018-09-05T00:48:00.662Z,14.67
2018-09-05T00:50:31.089Z,13.97
2018-09-05T00:53:01.482Z,12.17
2018-09-05T00:55:32.646Z,11.93
2018-09-05T00:58:03.088Z,13.43
2018-09-05T01:00:33.467Z,11.80
2018-09-05T01:03:03.865Z,13.00
2018-09-05T01:05:34.286Z,12.77
2018-09-05T01:08:23.013Z,13.50
2018-09-05T01:10:53.429Z,12.20
2018-09-05T01:13:24.581Z,14.00
2018-09-05T01:15:54.968Z,13.90
2018-09-05T01:18:25.583Z,12.60
2018-09-05T01:21:16.358Z,14.13
2018-09-05T01:23:46.768Z,13.10
2018-09-05T01:26:17.094Z,13.90
2018-09-05T01:28:47.476Z,13.27
2018-09-05T01:31:17.843Z,12.70
2018-09-05T01:33:48.997Z,13.33
2018-09-05T01:36:19.445Z,13.70
2018-09-05T01:38:49.880Z,13.23
2018-09-05T01:41:20.288Z,14.80
2018-09-05T01:43:50.692Z,13.57
2018-09-05T01:46:21.807Z,14.30
2018-09-05T01:48:52.208Z,13.57
2018-09-05T01:51:22.617Z,12.50
2018-09-05T01:53:53.047Z,12.90
2018-09-05T01:56:26.128Z,13.00
2018-09-05T01:58:56.536Z,13.37
2018-09-05T02:01:27.729Z,13.50
2018-09-05T02:04:04.260Z,13.97
2018-09-05T02:06:34.690Z,14.10
2018-09-05T02:09:05.113Z,11.57
2018-09-05T02:11:35.515Z,12.47
2018-09-05T02:14:05.930Z,13.00
2018-09-05T02:16:36.316Z,12.63
2018-09-05T02:19:06.723Z,12.00
2018-09-05T02:21:37.209Z,12.47
2018-09-05T02:24:07.601Z,13.03
2018-09-05T02:26:39.012Z,13.63
2018-09-05T02:29:10.206Z,10.90
2018-09-05T02:31:59.964Z,12.37
2018-09-05T02:34:30.382Z,11.80
2018-09-05T02:37:00.808Z,12.33
2018-09-05T02:39:31.978Z,12.07
2018-09-05T02:42:04.441Z,11.90
2018-09-05T02:44:34.840Z,10.77
2018-09-05T02:47:05.997Z,11.83
2018-09-05T02:49:37.111Z,12.90
2018-09-05T02:52:07.516Z,11.87
2018-09-05T02:54:37.993Z,12.63
2018-09-05T02:57:14.495Z,12.20
2018-09-05T02:59:52.205Z,13.10
2018-09-05T03:05:17.760Z,12.70
2018-09-05T03:07:48.199Z,11.47
2018-09-05T03:10:18.796Z,11.03
2018-09-05T03:12:51.236Z,11.60
2018-09-05T03:15:21.659Z,12.20
2018-09-05T03:17:51.982Z,12.10
2018-09-05T03:20:22.375Z,11.53
2018-09-05T03:22:52.809Z,11.00
2018-09-05T03:25:23.210Z,12.27
2018-09-05T03:27:58.750Z,12.57
2018-09-05T03:30:30.105Z,11.17
2018-09-05T03:33:02.562Z,11.47
2018-09-05T03:35:32.953Z,11.10
2018-09-05T03:38:04.105Z,10.50
2018-09-05T03:40:34.510Z,12.77
2018-09-05T03:43:04.960Z,9.77
2018-09-05T03:45:36.123Z,10.83
2018-09-05T03:48:06.519Z,12.27
2018-09-05T03:50:36.927Z,10.90
2018-09-05T03:53:07.972Z,11.77
2018-09-05T03:55:38.355Z,13.07
2018-09-05T03:58:09.795Z,11.67
2018-09-05T04:00:40.190Z,11.80
2018-09-05T04:03:11.368Z,12.80
2018-09-05T04:05:41.781Z,11.40
2018-09-05T04:08:12.178Z,11.40
2018-09-05T04:10:42.565Z,11.07
2018-09-05T04:13:12.911Z,11.57
2018-09-05T04:15:44.080Z,12.97
2018-09-05T04:18:15.113Z,11.20
2018-09-05T04:20:45.541Z,13.17
2018-09-05T04:23:15.942Z,10.77
2018-09-05T04:25:46.336Z,11.37
2018-09-05T04:28:16.675Z,12.60
2018-09-05T04:30:48.012Z,12.17
2018-09-05T04:33:18.409Z,12.40
2018-09-05T04:35:49.596Z,12.50
2018-09-05T04:38:21.013Z,13.80
2018-09-05T04:40:52.183Z,13.83
2018-09-05T04:43:22.610Z,12.90
2018-09-05T04:45:52.955Z,13.97
2018-09-05T04:48:29.427Z,13.73
2018-09-05T04:51:01.873Z,13.37
2018-09-05T04:53:32.291Z,13.73
2018-09-05T04:56:02.656Z,14.33
2018-09-05T04:58:35.084Z,13.63
2018-09-05T05:01:12.184Z,13.50
2018-09-05T05:03:42.590Z,14.87
2018-09-05T05:06:12.989Z,14.23
2018-09-05T05:08:43.416Z,15.20
2018-09-05T05:11:13.880Z,13.97
2018-09-05T05:13:48.282Z,12.53
2018-09-05T05:16:18.706Z,14.00
2018-09-05T05:18:49.029Z,15.23
2018-09-05T05:21:19.359Z,14.80
2018-09-05T05:23:50.535Z,14.67
2018-09-05T05:26:20.925Z,13.33
2018-09-05T05:28:51.255Z,14.87
2018-09-05T05:31:22.523Z,16.10
2018-09-05T05:33:58.913Z,17.37
2018-09-05T05:36:30.375Z,16.77
2018-09-05T05:39:03.785Z,15.70
2018-09-05T05:41:36.226Z,14.93
2018-09-05T05:44:13.325Z,14.33
2018-09-05T05:46:43.721Z,16.10
2018-09-05T05:49:14.034Z,16.07
2018-09-05T05:51:44.456Z,15.27
2018-09-05T05:54:15.625Z,15.93
2018-09-05T05:56:46.024Z,16.07
2018-09-05T05:59:17.167Z,16.33
2018-09-05T06:01:47.564Z,15.60
2018-09-05T06:04:21.036Z,14.23
2018-09-05T06:06:51.466Z,16.40
2018-09-05T06:09:21.866Z,16.67
2018-09-05T06:11:53.028Z,8.67
2018-09-05T06:14:24.135Z,8.70
2018-09-05T06:16:54.530Z,15.20
2018-09-05T06:19:27.983Z,16.80
2018-09-05T06:21:59.179Z,17.70
2018-09-05T06:24:29.506Z,17.90
2018-09-05T06:26:59.893Z,16.30
2018-09-05T06:29:30.293Z,18.80
2018-09-05T06:32:00.677Z,17.90
2018-09-05T06:34:32.112Z,16.60
2018-09-05T06:37:02.525Z,17.03
2018-09-05T06:39:32.849Z,15.03
2018-09-05T06:42:03.261Z,17.17
2018-09-05T06:44:34.442Z,15.53
2018-09-05T06:47:04.836Z,14.03
2018-09-05T06:49:35.161Z,14.50
2018-09-05T06:52:06.348Z,15.87
2018-09-05T06:54:56.111Z,17.70
2018-09-05T06:57:26.533Z,16.83
2018-09-05T06:59:56.955Z,14.47
2018-09-05T07:02:28.387Z,18.13
2018-09-05T07:07:42.934Z,16.80
2018-09-05T07:10:13.344Z,14.87
2018-09-05T07:12:43.669Z,16.67
2018-09-05T07:15:14.062Z,17.20
2018-09-05T07:17:44.472Z,16.60
2018-09-05T07:20:15.046Z,18.00
2018-09-05T07:22:45.431Z,14.20
2018-09-05T07:25:15.788Z,15.07
2018-09-05T07:27:52.518Z,14.87
2018-09-05T07:30:23.004Z,14.03
2018-09-05T07:32:54.388Z,16.53
2018-09-05T07:35:24.767Z,15.50
2018-09-05T07:37:56.111Z,16.53
2018-09-05T07:40:28.548Z,13.90
2018-09-05T07:42:58.962Z,14.13
2018-09-05T07:45:29.387Z,16.67
2018-09-05T07:47:59.787Z,12.30
2018-09-05T07:50:33.310Z,15.43
2018-09-05T07:53:04.446Z,13.80
2018-09-05T07:55:34.766Z,15.10
2018-09-05T07:58:05.157Z,14.17
2018-09-05T08:00:35.577Z,17.00
2018-09-05T08:03:05.976Z,14.83
2018-09-05T08:05:39.435Z,15.13
2018-09-05T08:08:31.276Z,17.07
2018-09-05T08:11:01.673Z,14.83
2018-09-05T08:13:33.080Z,15.20
2018-09-05T08:16:04.256Z,14.37
2018-09-05T08:18:34.659Z,16.03
2018-09-05T08:21:05.820Z,15.20
2018-09-05T08:23:36.240Z,15.73
2018-09-05T08:26:06.640Z,15.07
2018-09-05T08:28:37.231Z,14.43
2018-09-05T08:31:07.648Z,14.63
2018-09-05T08:33:38.073Z,14.63
2018-09-05T08:36:08.786Z,14.73
2018-09-05T08:38:39.775Z,13.00
2018-09-05T08:41:10.083Z,15.53
2018-09-05T08:43:40.572Z,15.03
2018-09-05T08:46:11.034Z,14.47
2018-09-05T08:48:41.276Z,13.53
2018-09-05T08:51:11.592Z,13.50
2018-09-05T08:53:44.062Z,12.07
2018-09-05T08:56:18.663Z,13.80
2018-09-05T08:58:49.677Z,12.87
2018-09-05T09:01:20.083Z,11.60
2018-09-05T09:03:50.491Z,12.43
2018-09-05T09:06:20.892Z,11.07
2018-09-05T09:08:51.323Z,12.60
2018-09-05T09:11:21.727Z,11.90
2018-09-05T09:13:52.887Z,11.37
2018-09-05T09:16:23.299Z,12.27
2018-09-05T09:18:53.679Z,12.03
2018-09-05T09:21:24.064Z,11.13
2018-09-05T09:23:54.484Z,11.13
2018-09-05T09:26:24.866Z,11.63
2018-09-05T09:28:55.273Z,11.20
2018-09-05T09:31:27.747Z,10.73
2018-09-05T09:33:58.146Z,10.23
2018-09-05T09:36:28.541Z,12.03
2018-09-05T09:38:59.682Z,12.27
2018-09-05T09:41:32.126Z,11.87
2018-09-05T09:44:08.683Z,11.00
2018-09-05T09:46:39.157Z,10.23
2018-09-05T09:49:09.439Z,12.37
2018-09-05T09:51:40.861Z,12.10
2018-09-05T09:54:11.254Z,10.77
2018-09-05T09:56:41.727Z,11.40
2018-09-05T09:59:12.073Z,12.13
2018-09-05T10:01:57.499Z,11.60
2018-09-05T10:04:46.658Z,10.67
2018-09-05T10:07:17.064Z,11.20
2018-09-05T10:12:39.097Z,10.60
2018-09-05T10:15:09.496Z,11.20
2018-09-05T10:17:39.912Z,11.03
2018-09-05T10:20:11.096Z,10.67
2018-09-05T10:22:42.609Z,10.97
2018-09-05T10:25:13.649Z,11.17
2018-09-05T10:27:44.066Z,11.67
2018-09-05T10:30:14.468Z,11.20
2018-09-05T10:32:44.797Z,11.00
2018-09-05T10:35:15.960Z,10.47
2018-09-05T10:37:46.282Z,10.87
2018-09-05T10:40:16.695Z,10.00
2018-09-05T10:42:47.097Z,9.27
2018-09-05T10:45:37.610Z,8.23
2018-09-05T10:48:08.041Z,10.23
2018-09-05T10:50:38.430Z,9.90
2018-09-05T10:53:08.830Z,9.77
2018-09-05T10:55:40.001Z,9.83
2018-09-05T10:58:10.481Z,9.87
2018-09-05T11:00:40.780Z,10.97
2018-09-05T11:03:30.576Z,10.63
2018-09-05T11:06:00.970Z,11.03
2018-09-05T11:08:31.381Z,10.47
2018-09-05T11:11:01.811Z,9.57
2018-09-05T11:13:32.229Z,9.57
2018-09-05T11:16:03.393Z,10.03
2018-09-05T11:18:33.804Z,9.03
2018-09-05T11:21:05.015Z,10.00
2018-09-05T11:23:36.390Z,8.50
2018-09-05T11:26:07.595Z,10.50
2018-09-05T11:28:38.969Z,8.30
2018-09-05T11:31:09.371Z,8.07
2018-09-05T11:33:39.786Z,8.57
2018-09-05T11:36:10.352Z,8.27
2018-09-05T11:38:40.757Z,8.20
2018-09-05T11:41:11.154Z,8.17
2018-09-05T11:43:41.540Z,8.77
2018-09-05T11:46:12.688Z,8.33
2018-09-05T11:48:43.859Z,8.50
2018-09-05T11:51:14.261Z,9.17
2018-09-05T11:53:45.625Z,8.10
2018-09-05T11:56:16.032Z,7.27
2018-09-05T11:58:47.195Z,9.13
2018-09-05T12:01:17.595Z,8.67
2018-09-05T12:03:48.030Z,7.83
2018-09-05T12:06:18.441Z,7.03
2018-09-05T12:09:07.869Z,8.03
2018-09-05T12:11:38.244Z,7.67
2018-09-05T12:14:08.588Z,8.30
2018-09-05T12:16:39.768Z,8.30
2018-09-05T12:19:11.197Z,8.03
2018-09-05T12:21:41.582Z,8.70
2018-09-05T12:24:12.011Z,8.70
2018-09-05T12:26:42.389Z,8.30
2018-09-05T12:29:12.802Z,7.97
2018-09-05T12:31:45.000Z,8.50
2018-09-05T12:34:17.430Z,9.03
2018-09-05T12:36:48.589Z,8.50
2018-09-05T12:39:18.939Z,8.53
2018-09-05T12:41:49.325Z,8.93
2018-09-05T12:44:20.473Z,9.30
2018-09-05T12:46:51.666Z,9.57
2018-09-05T12:49:29.374Z,8.53
2018-09-05T12:52:01.084Z,8.77
2018-09-05T12:54:31.453Z,9.90
2018-09-05T12:57:03.000Z,9.43
2018-09-05T12:59:33.701Z,9.40
2018-09-05T13:02:04.085Z,9.70
2018-09-05T13:04:34.450Z,8.33
2018-09-05T13:07:05.650Z,7.77
2018-09-05T13:09:36.043Z,8.30
2018-09-05T13:12:06.425Z,8.70
2018-09-05T13:14:36.845Z,9.93
2018-09-05T13:17:07.228Z,9.23
2018-09-05T13:19:37.623Z,8.83
2018-09-05T13:22:08.825Z,9.03
2018-09-05T13:24:40.247Z,7.97
2018-09-05T13:27:10.634Z,8.30
2018-09-05T13:29:41.061Z,9.30
2018-09-05T13:32:11.389Z,8.40
2018-09-05T13:34:42.473Z,8.97
2018-09-05T13:37:12.885Z,8.93
2018-09-05T13:39:43.199Z,9.00
2018-09-05T13:42:14.352Z,8.30
2018-09-05T13:44:44.754Z,7.60
2018-09-05T13:47:15.922Z,9.33
2018-09-05T13:49:46.323Z,8.40
2018-09-05T13:52:16.739Z,8.37
2018-09-05T13:54:47.129Z,8.53
2018-09-05T13:57:17.507Z,9.47
2018-09-05T13:59:48.700Z,10.73
2018-09-05T14:02:20.844Z,9.27
2018-09-05T14:04:51.212Z,9.77
2018-09-05T14:07:24.715Z,10.23
2018-09-05T14:09:55.108Z,9.97
2018-09-05T14:12:25.672Z,9.80
2018-09-05T14:14:56.012Z,9.27
2018-09-05T14:17:26.390Z,8.90
2018-09-05T14:19:57.487Z,9.73
2018-09-05T14:22:27.908Z,9.73
2018-09-05T14:24:58.307Z,9.00
2018-09-05T14:30:18.565Z,8.27
2018-09-05T14:32:48.963Z,10.23
2018-09-05T14:35:19.356Z,9.23
2018-09-05T14:37:49.970Z,9.30
2018-09-05T14:40:20.355Z,8.77
2018-09-05T14:42:50.737Z,9.13
2018-09-05T14:45:21.143Z,8.23
2018-09-05T14:47:51.540Z,8.80
2018-09-05T14:50:21.932Z,8.63
2018-09-05T14:52:59.510Z,8.50
2018-09-05T14:55:30.131Z,8.60
2018-09-05T14:58:00.512Z,8.90
2018-09-05T15:00:30.908Z,8.73
2018-09-05T15:03:04.346Z,8.63
2018-09-05T15:05:34.739Z,8.63
2018-09-05T15:08:07.202Z,9.40
2018-09-05T15:10:37.591Z,8.50
2018-09-05T15:13:08.750Z,9.20
2018-09-05T15:15:39.154Z,8.50
2018-09-05T15:18:09.529Z,8.97
2018-09-05T15:20:39.908Z,8.63
2018-09-05T15:23:10.374Z,8.40
2018-09-05T15:25:40.721Z,9.50
2018-09-05T15:28:11.106Z,9.70
2018-09-05T15:30:42.292Z,8.57
2018-09-05T15:33:14.797Z,8.63
2018-09-05T15:35:45.464Z,7.93
2018-09-05T15:38:15.865Z,8.20
2018-09-05T15:40:47.101Z,8.37
2018-09-05T15:43:19.194Z,8.23
2018-09-05T15:45:50.382Z,8.27
2018-09-05T15:48:20.763Z,9.03
2018-09-05T15:50:51.405Z,8.27
2018-09-05T15:53:22.569Z,8.43
2018-09-05T15:55:52.962Z,8.37
2018-09-05T15:58:23.347Z,8.47
2018-09-05T16:01:13.115Z,8.77
2018-09-05T16:03:45.558Z,8.33
2018-09-05T16:06:15.946Z,8.50
2018-09-05T16:08:46.364Z,7.80
2018-09-05T16:11:22.372Z,7.07
2018-09-05T16:13:52.706Z,7.50
2018-09-05T16:16:24.132Z,6.80
2018-09-05T16:18:54.784Z,7.63
2018-09-05T16:21:25.135Z,7.57
2018-09-05T16:23:55.513Z,8.37
2018-09-05T16:26:25.936Z,7.87
2018-09-05T16:28:56.593Z,6.53
2018-09-05T16:31:26.993Z,7.73
2018-09-05T16:33:58.405Z,7.60
2018-09-05T16:36:34.888Z,7.40
2018-09-05T16:39:06.295Z,7.07
2018-09-05T16:41:38.473Z,7.37
2018-09-05T16:44:09.928Z,8.27
2018-09-05T16:46:40.311Z,6.90
2018-09-05T16:49:10.678Z,7.13
2018-09-05T16:51:41.104Z,7.63
2018-09-05T16:54:14.392Z,7.80
2018-09-05T16:56:44.792Z,7.60
2018-09-05T16:59:15.966Z,7.80
2018-09-05T17:01:47.000Z,7.87
2018-09-05T17:04:18.166Z,7.60
2018-09-05T17:06:50.630Z,7.83
2018-09-05T17:09:21.009Z,7.03
2018-09-05T17:11:51.383Z,7.60
2018-09-05T17:14:24.497Z,7.23
2018-09-05T17:17:13.988Z,7.83
2018-09-05T17:19:44.406Z,8.57
2018-09-05T17:22:14.793Z,8.50
2018-09-05T17:24:47.233Z,7.80
2018-09-05T17:27:20.167Z,8.00
2018-09-05T17:29:51.306Z,8.50
2018-09-05T17:32:21.625Z,8.10
2018-09-05T17:34:52.065Z,7.70
2018-09-05T17:37:22.459Z,8.13
2018-09-05T17:39:53.617Z,8.10
2018-09-05T17:45:09.475Z,8.30
2018-09-05T17:47:39.893Z,8.00
2018-09-05T17:50:13.744Z,7.83
2018-09-05T17:52:44.917Z,7.73
2018-09-05T17:55:15.247Z,8.10
2018-09-05T17:57:45.631Z,8.37
2018-09-05T18:00:16.007Z,8.20
2018-09-05T18:02:49.130Z,7.87
2018-09-05T18:05:20.381Z,8.20
2018-09-05T18:07:50.953Z,7.67
2018-09-05T18:10:26.987Z,8.80
2018-09-05T18:13:02.626Z,8.10
2018-09-05T18:15:33.027Z,7.83
2018-09-05T18:18:22.777Z,8.27
2018-09-05T18:20:53.197Z,9.40
2018-09-05T18:23:25.373Z,8.50
2018-09-05T18:25:58.182Z,8.57
2018-09-05T18:28:30.637Z,9.07
2018-09-05T18:31:01.011Z,8.23
2018-09-05T18:33:31.373Z,8.90
2018-09-05T18:36:01.799Z,9.17
2018-09-05T18:38:32.936Z,8.10
2018-09-05T18:41:03.229Z,9.53
2018-09-05T18:43:33.645Z,8.33
2018-09-05T18:46:04.049Z,9.27
2018-09-05T18:48:34.436Z,10.40
2018-09-05T18:51:05.595Z,9.67
2018-09-05T18:53:35.963Z,9.77
2018-09-05T18:56:11.502Z,9.80
2018-09-05T18:58:48.037Z,10.73
2018-09-05T19:01:18.387Z,11.57
2018-09-05T19:03:49.812Z,9.37
2018-09-05T19:06:20.894Z,11.93
2018-09-05T19:09:12.356Z,10.60
2018-09-05T19:11:42.677Z,10.47
2018-09-05T19:14:13.766Z,11.67
2018-09-05T19:16:44.057Z,11.73
2018-09-05T19:19:15.148Z,12.10
2018-09-05T19:21:45.547Z,10.90
2018-09-05T19:24:18.646Z,12.10
2018-09-05T19:26:49.041Z,11.43
2018-09-05T19:29:23.036Z,11.10
2018-09-05T19:31:53.461Z,12.20
2018-09-05T19:34:26.503Z,12.03
2018-09-05T19:36:56.880Z,11.13
2018-09-05T19:39:27.236Z,11.37
2018-09-05T19:41:57.633Z,12.07
2018-09-05T19:44:28.030Z,11.30
2018-09-05T19:47:18.862Z,13.00
2018-09-05T19:49:52.105Z,13.10
2018-09-05T19:52:22.500Z,13.10
2018-09-05T19:54:56.194Z,12.53
2018-09-05T19:57:29.592Z,12.80
2018-09-05T19:59:59.967Z,12.47
2018-09-05T20:02:30.387Z,11.40
2018-09-05T20:05:03.551Z,12.40
2018-09-05T20:07:34.692Z,12.63
2018-09-05T20:10:05.879Z,11.87
2018-09-05T20:12:36.261Z,12.30
2018-09-05T20:15:07.411Z,11.73
2018-09-05T20:17:37.822Z,12.00
2018-09-05T20:20:08.151Z,11.53
2018-09-05T20:22:38.992Z,12.43
2018-09-05T20:25:09.401Z,12.20
2018-09-05T20:27:42.564Z,12.77
2018-09-05T20:30:12.944Z,12.53
2018-09-05T20:32:43.289Z,11.77
2018-09-05T20:35:13.682Z,11.67
2018-09-05T20:37:44.053Z,12.53
2018-09-05T20:40:14.478Z,12.07
2018-09-05T20:42:44.869Z,12.10
2018-09-05T20:45:15.271Z,10.90
2018-09-05T20:47:45.695Z,11.07
2018-09-05T20:50:16.095Z,10.93
2018-09-05T20:52:48.533Z,12.03
2018-09-05T20:55:19.713Z,12.10
2018-09-05T20:57:52.674Z,12.17
2018-09-05T21:00:23.789Z,11.43
2018-09-05T21:02:54.209Z,10.63
2018-09-05T21:08:08.384Z,10.73
2018-09-05T21:10:38.776Z,11.20
2018-09-05T21:13:09.166Z,11.50
2018-09-05T21:15:39.581Z,11.00
2018-09-05T21:18:10.865Z,9.87
2018-09-05T21:20:41.870Z,10.63
2018-09-05T21:23:13.045Z,10.40
2018-09-05T21:25:43.366Z,11.80
2018-09-05T21:28:13.761Z,10.67
2018-09-05T21:30:44.942Z,10.47
2018-09-05T21:33:15.330Z,11.70
2018-09-05T21:35:46.473Z,10.57
2018-09-05T21:38:16.880Z,10.37
2018-09-05T21:40:47.255Z,10.53
2018-09-05T21:43:17.655Z,10.93
2018-09-05T21:45:48.765Z,10.43
2018-09-05T21:48:19.137Z,10.93
2018-09-05T21:50:49.489Z,10.60
2018-09-05T21:53:19.827Z,9.87
2018-09-05T21:56:09.316Z,10.10
2018-09-05T21:58:39.711Z,10.17
2018-09-05T22:01:10.104Z,10.67
2018-09-05T22:03:41.269Z,9.40
2018-09-05T22:06:11.673Z,9.53
2018-09-05T22:08:42.829Z,9.83
2018-09-05T22:11:13.965Z,8.87
2018-09-05T22:13:45.186Z,8.40
2018-09-05T22:16:15.461Z,9.60
2018-09-05T22:18:45.852Z,9.47
2018-09-05T22:21:16.252Z,9.27
2018-09-05T22:23:46.645Z,9.57
2018-09-05T22:26:17.037Z,8.30
2018-09-05T22:28:47.443Z,8.60
2018-09-05T22:31:17.819Z,8.17
2018-09-05T22:33:48.447Z,8.30
2018-09-05T22:36:18.887Z,7.47
2018-09-05T22:38:49.200Z,7.80
2018-09-05T22:41:20.345Z,7.73
2018-09-05T22:44:22.723Z,7.53
2018-09-05T22:50:18.199Z,6.77
2018-09-05T22:52:51.020Z,7.70
2018-09-05T22:55:23.998Z,7.63
2018-09-05T22:58:12.519Z,6.80
2018-09-05T23:01:02.282Z,6.60
2018-09-05T23:03:34.711Z,8.40
2018-09-05T23:06:05.877Z,7.67
2018-09-05T23:08:36.251Z,6.93
2018-09-05T23:11:14.631Z,7.20
2018-09-05T23:14:14.471Z,7.30
2018-09-05T23:17:20.597Z,6.50
2018-09-05T23:19:50.920Z,7.50
2018-09-05T23:22:21.303Z,7.50
2018-09-05T23:24:51.719Z,7.80
2018-09-05T23:27:22.107Z,7.47
2018-09-05T23:29:52.504Z,6.20
2018-09-05T23:32:22.912Z,6.70
2018-09-05T23:34:53.295Z,6.77
2018-09-05T23:37:23.679Z,7.43
2018-09-05T23:39:54.092Z,6.37
2018-09-05T23:42:24.476Z,7.33
2018-09-05T23:44:54.859Z,7.17
2018-09-05T23:47:25.263Z,6.97
2018-09-05T23:49:55.643Z,6.73
2018-09-05T23:52:26.023Z,7.03
2018-09-05T23:54:58.463Z,6.97
2018-09-05T23:57:28.846Z,6.93
2018-09-05T23:59:59.995Z,6.80
